Time;durP1;ratioP1;P1;durP2;ratioP2;P2;SDS_P1;SDS_P2;PMS_P1;PMS_P2;Temp;Humidity;BMP_temperature;BMP_pressure;BME280_temperature;BME280_humidity;BME280_pressure;Samples;Min_cycle;Max_cycle;Signal;HPM_P1;HPM_P2
2023/05/13 00:01:15;;;;;;;15.70;7.53;;;11.90;99.90;;;;;;5046357;28;20063;-70
2023/05/13 00:03:41;;;;;;;14.88;7.65;;;11.90;99.90;;;;;;4992698;28;238486;-70
2023/05/13 00:06:07;;;;;;;13.45;7.63;;;11.90;99.90;;;;;;5064946;28;20051;-71
2023/05/13 00:08:33;;;;;;;14.05;7.82;;;11.90;99.90;;;;;;5005960;28;214102;-70
2023/05/13 00:11:00;;;;;;;15.80;7.60;;;11.90;99.90;;;;;;5053621;28;20049;-71
2023/05/13 00:13:26;;;;;;;13.13;7.63;;;11.90;99.90;;;;;;5015580;28;210701;-71
2023/05/13 00:15:52;;;;;;;16.02;8.15;;;11.90;99.90;;;;;;5073792;28;20055;-70
2023/05/13 00:18:18;;;;;;;12.90;7.65;;;11.80;99.90;;;;;;5016058;28;213466;-71
2023/05/13 00:20:44;;;;;;;15.90;8.23;;;11.80;99.90;;;;;;5080149;28;20063;-70
2023/05/13 00:23:10;;;;;;;13.35;8.43;;;11.80;99.90;;;;;;5012721;28;190816;-71
2023/05/13 00:25:37;;;;;;;14.95;8.38;;;11.70;99.90;;;;;;5061941;28;20055;-71
2023/05/13 00:28:04;;;;;;;12.65;8.90;;;11.70;99.90;;;;;;5010001;28;317947;-69
2023/05/13 00:30:30;;;;;;;17.02;9.40;;;11.60;99.90;;;;;;5054860;28;20063;-70
2023/05/13 00:32:56;;;;;;;13.50;9.18;;;11.60;99.90;;;;;;5057957;28;216442;-72
2023/05/13 00:35:22;;;;;;;15.07;8.60;;;11.50;99.90;;;;;;5038699;28;180513;-69
2023/05/13 00:37:48;;;;;;;16.45;8.85;;;11.50;99.90;;;;;;5074298;28;20044;-71
2023/05/13 00:40:20;;;;;;;16.35;9.00;;;11.50;99.90;;;;;;5010374;28;208988;-69
2023/05/13 00:42:46;;;;;;;;;;;11.40;99.90;;;;;;5072148;28;20098;-70
2023/05/13 00:45:16;;;;;;;16.15;8.48;;;11.40;99.90;;;;;;4997842;28;209177;-72
2023/05/13 00:47:46;;;;;;;15.27;8.77;;;11.40;99.90;;;;;;5069834;28;20056;-71
2023/05/13 00:50:13;;;;;;;15.70;8.50;;;11.30;99.90;;;;;;5016155;28;232629;-71
2023/05/13 00:52:41;;;;;;;18.23;8.88;;;11.30;99.90;;;;;;5073496;28;20052;-71
2023/05/13 00:55:08;;;;;;;18.60;8.80;;;11.30;99.90;;;;;;5024585;28;211244;-71
2023/05/13 00:57:36;;;;;;;15.38;8.95;;;11.30;99.90;;;;;;5069268;28;20063;-70
2023/05/13 01:00:04;;;;;;;15.65;8.80;;;11.30;99.90;;;;;;4996088;28;234944;-71
2023/05/13 01:02:42;;;;;;;13.90;8.35;;;11.20;99.90;;;;;;5072668;28;20055;-70
2023/05/13 01:05:14;;;;;;;20.88;8.65;;;11.20;99.90;;;;;;4989117;28;209876;-71
2023/05/13 01:07:43;;;;;;;15.85;8.75;;;11.20;99.90;;;;;;5069948;28;20356;-71
2023/05/13 01:10:41;;;;;;;20.55;8.80;;;11.20;99.90;;;;;;5008826;28;207789;-71
2023/05/13 01:13:12;;;;;;;14.83;8.93;;;11.20;99.90;;;;;;5010483;28;209018;-71
2023/05/13 01:15:55;;;;;;;15.80;8.90;;;11.10;99.90;;;;;;5073797;28;20056;-70
2023/05/13 01:18:27;;;;;;;17.30;9.55;;;11.10;99.90;;;;;;5015490;28;205372;-69
2023/05/13 01:20:53;;;;;;;18.15;9.35;;;11.10;99.90;;;;;;5050046;28;20052;-72
2023/05/13 01:23:19;;;;;;;14.70;9.70;;;11.10;99.90;;;;;;5010202;28;212284;-70
2023/05/13 01:25:46;;;;;;;13.82;9.00;;;11.10;99.90;;;;;;5073960;28;20134;-71
2023/05/13 01:28:12;;;;;;;18.60;9.20;;;11.10;99.90;;;;;;4995645;28;208428;-71
2023/05/13 01:30:39;;;;;;;16.15;8.88;;;11.00;99.90;;;;;;5058772;28;20550;-69
2023/05/13 01:33:05;;;;;;;17.63;9.68;;;11.00;99.90;;;;;;5012736;28;210136;-70
2023/05/13 01:35:32;;;;;;;15.52;9.13;;;11.00;99.90;;;;;;5060490;28;20534;-71
2023/05/13 01:38:00;;;;;;;14.55;9.63;;;11.00;99.90;;;;;;5041875;28;223087;-70
2023/05/13 01:40:26;;;;;;;15.57;9.70;;;10.90;99.90;;;;;;5037684;28;20044;-72
2023/05/13 01:42:52;;;;;;;16.38;9.57;;;10.90;99.90;;;;;;5068210;28;20056;-70
2023/05/13 01:45:19;;;;;;;16.92;9.40;;;10.90;99.90;;;;;;5003139;28;212193;-71
2023/05/13 01:47:45;;;;;;;15.57;9.82;;;10.90;99.90;;;;;;5077336;28;20059;-71
2023/05/13 01:50:11;;;;;;;16.60;9.65;;;10.90;99.90;;;;;;5002854;28;211748;-71
2023/05/13 01:52:37;;;;;;;17.10;9.57;;;10.90;99.90;;;;;;5071359;28;20052;-71
2023/05/13 01:55:04;;;;;;;17.70;10.20;;;10.80;99.90;;;;;;4995002;28;214312;-70
2023/05/13 01:57:30;;;;;;;18.25;10.10;;;10.80;99.90;;;;;;5068764;28;20048;-70
2023/05/13 01:59:56;;;;;;;17.20;10.00;;;10.80;99.90;;;;;;4982514;28;209958;-71
2023/05/13 02:02:22;;;;;;;17.38;10.35;;;10.80;99.90;;;;;;5058789;28;20059;-69
2023/05/13 02:04:48;;;;;;;16.02;9.65;;;10.80;99.90;;;;;;5026668;28;209210;-71
2023/05/13 02:07:14;;;;;;;16.10;9.98;;;10.80;99.90;;;;;;5076768;28;20052;-71
2023/05/13 02:09:41;;;;;;;16.63;10.40;;;10.70;99.90;;;;;;5022554;28;212652;-71
2023/05/13 02:12:07;;;;;;;15.60;10.00;;;10.70;99.90;;;;;;5073324;28;20078;-70
2023/05/13 02:14:33;;;;;;;15.75;10.23;;;10.70;99.90;;;;;;5016388;28;210835;-71
2023/05/13 02:16:59;;;;;;;15.70;11.13;;;10.70;99.90;;;;;;5075893;28;20051;-70
2023/05/13 02:19:25;;;;;;;15.70;11.02;;;10.70;99.90;;;;;;5012093;28;218903;-70
2023/05/13 02:21:51;;;;;;;15.73;10.50;;;10.60;99.90;;;;;;5071551;28;20518;-71
2023/05/13 02:24:18;;;;;;;16.25;11.75;;;10.60;99.90;;;;;;5024116;28;207959;-70
2023/05/13 02:26:44;;;;;;;16.77;11.68;;;10.60;99.90;;;;;;5076918;28;20061;-71
2023/05/13 02:29:10;;;;;;;17.70;12.05;;;10.50;99.90;;;;;;4999773;28;153685;-70
2023/05/13 02:31:36;;;;;;;16.92;12.38;;;10.40;99.90;;;;;;5054178;28;20064;-70
2023/05/13 02:34:02;;;;;;;18.02;12.48;;;10.40;99.90;;;;;;5005217;28;210133;-71
2023/05/13 02:36:28;;;;;;;19.42;13.07;;;10.40;99.90;;;;;;5071444;28;20581;-71
2023/05/13 02:38:54;;;;;;;18.02;12.68;;;10.30;99.90;;;;;;5020248;28;212439;-71
2023/05/13 02:41:20;;;;;;;23.45;13.52;;;10.30;99.90;;;;;;5077130;28;20553;-71
2023/05/13 02:43:46;;;;;;;20.17;13.38;;;10.30;99.90;;;;;;5008197;28;205861;-70
2023/05/13 02:46:12;;;;;;;17.75;13.65;;;10.30;99.90;;;;;;5072723;28;20056;-68
2023/05/13 02:48:38;;;;;;;19.13;13.85;;;10.20;99.90;;;;;;5018349;28;205666;-70
2023/05/13 02:51:05;;;;;;;20.25;13.25;;;10.20;99.90;;;;;;5065661;28;20059;-71
2023/05/13 02:53:31;;;;;;;16.60;13.32;;;10.20;99.90;;;;;;5014647;28;215067;-71
2023/05/13 02:55:58;;;;;;;18.42;13.13;;;10.20;99.90;;;;;;5076274;28;20053;-71
2023/05/13 02:58:24;;;;;;;21.00;12.73;;;10.20;99.90;;;;;;5000929;28;207038;-70
2023/05/13 03:00:50;;;;;;;22.83;13.25;;;10.20;99.90;;;;;;5059476;28;20992;-71
2023/05/13 03:03:16;;;;;;;19.88;13.90;;;10.20;99.90;;;;;;5010465;28;208713;-71
2023/05/13 03:05:42;;;;;;;20.15;14.02;;;10.20;99.90;;;;;;5043326;28;20044;-71
2023/05/13 03:08:08;;;;;;;23.75;14.43;;;10.20;99.90;;;;;;4996424;28;219130;-71
2023/05/13 03:10:34;;;;;;;19.40;13.57;;;10.20;99.90;;;;;;5077015;28;20044;-71
2023/05/13 03:13:00;;;;;;;17.50;13.67;;;10.20;99.90;;;;;;5011690;28;208909;-71
2023/05/13 03:15:27;;;;;;;22.65;14.20;;;10.20;99.90;;;;;;5057715;28;20044;-70
2023/05/13 03:17:53;;;;;;;18.90;14.23;;;10.20;99.90;;;;;;5051002;28;20498;-70
2023/05/13 03:20:19;;;;;;;19.67;14.80;;;10.20;99.90;;;;;;5009024;28;133385;-70
2023/05/13 03:22:45;;;;;;;21.95;14.00;;;10.20;99.90;;;;;;5075109;28;20056;-68
2023/05/13 03:25:11;;;;;;;21.17;14.32;;;10.20;99.90;;;;;;4993631;28;139103;-70
2023/05/13 03:27:37;;;;;;;22.27;14.27;;;10.30;99.90;;;;;;5072981;28;20517;-70
2023/05/13 03:30:04;;;;;;;20.73;14.07;;;10.20;99.90;;;;;;5003688;28;207730;-69
2023/05/13 03:32:30;;;;;;;21.30;14.32;;;10.20;99.90;;;;;;5055979;28;20453;-70
2023/05/13 03:34:57;;;;;;;24.08;15.02;;;10.20;99.90;;;;;;4998546;28;217082;-70
2023/05/13 03:37:23;;;;;;;22.40;15.52;;;10.20;99.90;;;;;;5078572;28;20048;-70
2023/05/13 03:39:50;;;;;;;24.45;15.18;;;10.20;99.90;;;;;;5007134;28;204264;-71
2023/05/13 03:42:16;;;;;;;23.77;14.75;;;10.20;99.90;;;;;;5073602;28;20325;-71
2023/05/13 03:44:43;;;;;;;22.35;15.95;;;10.20;99.90;;;;;;5021048;28;212365;-71
2023/05/13 03:47:09;;;;;;;22.02;15.45;;;10.20;99.90;;;;;;5070539;28;20718;-69
2023/05/13 03:49:35;;;;;;;26.20;15.43;;;10.20;99.90;;;;;;5005345;28;208692;-71
2023/05/13 03:52:01;;;;;;;24.00;15.68;;;10.30;99.90;;;;;;5064970;28;20056;-71
2023/05/13 03:54:27;;;;;;;23.48;15.45;;;10.20;99.90;;;;;;5020973;28;212476;-72
2023/05/13 03:56:53;;;;;;;19.90;15.13;;;10.20;99.90;;;;;;5075330;28;20654;-71
2023/05/13 03:59:19;;;;;;;18.83;15.70;;;10.20;99.90;;;;;;4988265;28;206181;-71
2023/05/13 04:01:45;;;;;;;26.00;14.77;;;10.30;99.90;;;;;;5069679;28;20052;-71
2023/05/13 04:04:11;;;;;;;23.92;15.90;;;10.30;99.90;;;;;;5009381;28;212583;-71
2023/05/13 04:06:37;;;;;;;20.08;15.73;;;10.30;99.90;;;;;;5065680;28;20525;-71
2023/05/13 04:09:03;;;;;;;22.00;15.70;;;10.30;99.90;;;;;;5001717;28;199940;-72
2023/05/13 04:11:30;;;;;;;23.67;16.65;;;10.30;99.90;;;;;;5069673;28;20051;-71
2023/05/13 04:13:57;;;;;;;25.95;15.75;;;10.40;99.90;;;;;;5016170;28;212963;-69
2023/05/13 04:16:24;;;;;;;20.15;15.00;;;10.40;99.90;;;;;;5069225;28;20052;-71
2023/05/13 04:18:50;;;;;;;23.13;15.60;;;10.40;99.90;;;;;;5011117;28;207192;-70
2023/05/13 04:21:16;;;;;;;26.77;16.35;;;10.50;99.90;;;;;;5067631;28;20584;-71
2023/05/13 04:23:42;;;;;;;24.85;16.00;;;10.40;99.90;;;;;;5008840;28;209062;-71
2023/05/13 04:26:08;;;;;;;21.05;15.48;;;10.50;99.90;;;;;;5072318;28;20067;-70
2023/05/13 04:28:35;;;;;;;23.42;15.65;;;10.50;99.90;;;;;;5003417;28;207743;-70
2023/05/13 04:31:01;;;;;;;24.63;15.60;;;10.60;99.90;;;;;;5042483;28;20047;-71
2023/05/13 04:33:27;;;;;;;21.70;15.75;;;10.60;99.90;;;;;;4996176;28;216909;-71
2023/05/13 04:35:54;;;;;;;26.15;15.45;;;10.60;99.90;;;;;;5058998;28;20044;-71
2023/05/13 04:38:20;;;;;;;23.17;15.45;;;10.60;99.90;;;;;;5004670;28;209259;-71
2023/05/13 04:40:46;;;;;;;20.15;14.57;;;10.70;99.90;;;;;;5064958;28;20044;-71
2023/05/13 04:43:13;;;;;;;23.57;14.87;;;10.70;99.90;;;;;;5013123;28;211077;-71
2023/05/13 04:45:39;;;;;;;19.73;14.43;;;10.80;99.90;;;;;;5056811;28;20067;-70
2023/05/13 04:48:06;;;;;;;23.08;15.13;;;10.80;99.90;;;;;;5018300;28;210387;-71
2023/05/13 04:50:32;;;;;;;22.58;13.98;;;10.90;99.90;;;;;;5079590;28;20045;-71
2023/05/13 04:52:58;;;;;;;21.40;14.43;;;11.00;99.90;;;;;;5050480;28;222327;-70
2023/05/13 04:55:24;;;;;;;21.33;14.48;;;11.00;99.90;;;;;;5031759;28;150231;-71
2023/05/13 04:57:50;;;;;;;23.25;14.77;;;11.00;99.90;;;;;;5069460;28;20055;-71
2023/05/13 05:00:16;;;;;;;23.83;14.32;;;11.10;99.90;;;;;;4995134;28;211262;-71
2023/05/13 05:02:42;;;;;;;21.50;13.88;;;11.20;99.90;;;;;;5068061;28;20055;-71
2023/05/13 05:05:09;;;;;;;20.73;13.40;;;11.30;99.90;;;;;;5001345;28;210701;-71
2023/05/13 05:07:39;;;;;;;24.13;13.38;;;11.40;99.90;;;;;;5071300;28;20052;-71
2023/05/13 05:10:07;;;;;;;21.48;13.05;;;11.40;99.90;;;;;;5014055;28;211444;-71
2023/05/13 05:12:33;;;;;;;18.88;13.05;;;11.50;99.90;;;;;;5069000;28;20052;-71
2023/05/13 05:14:59;;;;;;;17.23;12.65;;;11.60;99.90;;;;;;5001441;28;229400;-70
2023/05/13 05:17:27;;;;;;;21.63;13.02;;;11.80;99.90;;;;;;5067308;28;20083;-71
2023/05/13 05:19:54;;;;;;;18.52;11.82;;;11.90;99.90;;;;;;5004590;28;216675;-70
2023/05/13 05:22:20;;;;;;;23.10;11.75;;;11.90;99.90;;;;;;5071838;28;20052;-70
2023/05/13 05:24:47;;;;;;;21.02;12.05;;;12.10;99.90;;;;;;5015895;28;229204;-71
2023/05/13 05:27:13;;;;;;;17.65;11.45;;;12.20;99.90;;;;;;5077030;28;20056;-71
2023/05/13 05:29:39;;;;;;;16.15;10.10;;;12.50;99.90;;;;;;5009494;28;212598;-70
2023/05/13 05:32:06;;;;;;;16.80;10.75;;;12.70;99.90;;;;;;5070727;28;20061;-71
2023/05/13 05:34:32;;;;;;;19.58;10.50;;;13.00;99.90;;;;;;5013642;28;219611;-71
2023/05/13 05:36:58;;;;;;;19.55;10.30;;;13.20;99.90;;;;;;5082254;28;20051;-70
2023/05/13 05:39:24;;;;;;;18.23;9.68;;;13.50;99.90;;;;;;5015739;28;219813;-69
2023/05/13 05:41:50;;;;;;;13.77;9.95;;;13.70;99.90;;;;;;5069322;28;20060;-70
2023/05/13 05:44:16;;;;;;;19.42;9.55;;;13.90;99.90;;;;;;4988594;28;215132;-69
2023/05/13 05:46:42;;;;;;;15.27;9.23;;;14.10;99.90;;;;;;5049714;28;20045;-70
2023/05/13 05:49:08;;;;;;;15.30;8.63;;;14.20;99.90;;;;;;5001085;28;230679;-72
2023/05/13 05:51:34;;;;;;;17.02;9.00;;;14.50;99.90;;;;;;5052933;28;20538;-71
2023/05/13 05:54:01;;;;;;;17.98;9.23;;;14.60;99.90;;;;;;5000560;28;240330;-71
2023/05/13 05:56:27;;;;;;;18.27;8.60;;;14.70;99.90;;;;;;5057546;28;20064;-72
2023/05/13 05:58:53;;;;;;;16.08;8.65;;;14.90;99.90;;;;;;4975691;28;210776;-72
2023/05/13 06:01:19;;;;;;;18.02;8.32;;;15.10;99.90;;;;;;5035436;28;20052;-71
2023/05/13 06:03:45;;;;;;;16.02;8.80;;;15.20;99.90;;;;;;4994008;28;206770;-71
2023/05/13 06:06:11;;;;;;;15.80;8.50;;;15.20;99.90;;;;;;5045256;28;20068;-72
2023/05/13 06:08:37;;;;;;;16.63;8.32;;;15.50;99.90;;;;;;4997163;28;216222;-72
2023/05/13 06:11:03;;;;;;;15.38;8.10;;;15.70;99.90;;;;;;5039586;28;20053;-72
2023/05/13 06:13:29;;;;;;;15.93;8.02;;;15.90;99.90;;;;;;4995746;28;218196;-72
2023/05/13 06:15:55;;;;;;;14.82;7.78;;;16.00;99.90;;;;;;5056426;28;20057;-71
2023/05/13 06:18:22;;;;;;;19.58;7.97;;;16.10;99.90;;;;;;4989875;28;210170;-72
2023/05/13 06:20:48;;;;;;;17.08;7.78;;;16.30;99.90;;;;;;5055714;28;20048;-71
2023/05/13 06:23:14;;;;;;;14.32;7.20;;;16.40;99.90;;;;;;4986712;28;252204;-72
2023/05/13 06:25:40;;;;;;;14.32;7.47;;;16.70;99.90;;;;;;5045774;28;20044;-71
2023/05/13 06:28:07;;;;;;;13.53;6.77;;;16.90;99.90;;;;;;4991748;28;215803;-72
2023/05/13 06:30:33;;;;;;;13.40;7.05;;;17.10;99.90;;;;;;5057227;28;20507;-70
2023/05/13 06:32:59;;;;;;;14.73;6.80;;;17.30;99.90;;;;;;5023335;28;220442;-72
2023/05/13 06:35:25;;;;;;;17.23;7.30;;;17.30;99.90;;;;;;5029369;28;266434;-72
2023/05/13 06:37:52;;;;;;;15.23;6.78;;;17.40;99.90;;;;;;5054088;28;20057;-73
2023/05/13 06:40:18;;;;;;;12.32;6.75;;;17.70;99.90;;;;;;4978931;28;214702;-72
2023/05/13 06:42:44;;;;;;;20.10;6.57;;;17.70;99.90;;;;;;5051906;28;20056;-72
2023/05/13 06:45:10;;;;;;;12.60;6.35;;;17.90;99.90;;;;;;4993437;28;211904;-71
2023/05/13 06:47:36;;;;;;;12.30;5.70;;;18.00;99.90;;;;;;5072954;28;20049;-72
2023/05/13 06:50:03;;;;;;;12.98;6.00;;;18.30;99.90;;;;;;5000870;28;213333;-72
2023/05/13 06:52:30;;;;;;;13.23;5.93;;;18.50;99.90;;;;;;5079069;28;20430;-72
2023/05/13 06:54:58;;;;;;;12.95;5.72;;;18.70;99.90;;;;;;4998540;28;252456;-70
2023/05/13 06:57:25;;;;;;;14.30;5.78;;;18.80;99.90;;;;;;5072732;28;20059;-71
2023/05/13 06:59:51;;;;;;;10.85;5.47;;;18.90;99.90;;;;;;5004889;28;210455;-72
2023/05/13 07:02:17;;;;;;;12.73;5.55;;;19.10;99.90;;;;;;5073577;28;20418;-72
2023/05/13 07:04:43;;;;;;;14.55;5.50;;;19.20;99.90;;;;;;5018464;28;229611;-71
2023/05/13 07:07:09;;;;;;;13.27;5.32;;;19.40;99.90;;;;;;5078714;28;20120;-71
2023/05/13 07:09:36;;;;;;;14.52;5.05;;;19.50;99.40;;;;;;5006347;28;220559;-72
2023/05/13 07:12:02;;;;;;;12.95;5.15;;;19.80;99.90;;;;;;5073754;28;20122;-70
2023/05/13 07:14:28;;;;;;;11.85;4.53;;;19.90;98.80;;;;;;5013801;28;227563;-70
2023/05/13 07:16:54;;;;;;;11.75;4.57;;;20.00;99.50;;;;;;5072502;28;20073;-70
2023/05/13 07:19:20;;;;;;;11.45;4.45;;;20.20;99.60;;;;;;5004034;28;213669;-71
2023/05/13 07:21:46;;;;;;;15.18;4.65;;;20.40;98.80;;;;;;5059805;28;20071;-71
2023/05/13 07:24:13;;;;;;;11.93;4.40;;;20.30;98.30;;;;;;4986031;28;214759;-71
2023/05/13 07:26:39;;;;;;;12.38;4.10;;;20.30;98.10;;;;;;5050907;28;20550;-72
2023/05/13 07:29:06;;;;;;;12.55;4.50;;;20.30;97.40;;;;;;5011892;28;216945;-71
2023/05/13 07:31:33;;;;;;;13.90;4.43;;;20.60;98.00;;;;;;5074225;28;20060;-71
2023/05/13 07:33:59;;;;;;;13.80;4.70;;;20.70;97.40;;;;;;5014893;28;208239;-70
2023/05/13 07:36:26;;;;;;;9.32;4.20;;;20.90;96.90;;;;;;5082767;28;20126;-69
2023/05/13 07:38:52;;;;;;;14.18;4.47;;;21.10;96.00;;;;;;5014531;28;211574;-69
2023/05/13 07:41:19;;;;;;;11.88;4.05;;;21.20;96.20;;;;;;5069920;28;20052;-71
2023/05/13 07:43:45;;;;;;;12.23;4.03;;;21.40;95.80;;;;;;5012375;28;207442;-69
2023/05/13 07:46:11;;;;;;;13.32;3.75;;;21.50;95.20;;;;;;5069286;28;20048;-70
2023/05/13 07:48:37;;;;;;;12.18;3.85;;;21.50;95.50;;;;;;5012069;28;210755;-71
2023/05/13 07:51:04;;;;;;;11.63;3.80;;;21.70;95.50;;;;;;5053031;28;20056;-70
2023/05/13 07:53:30;;;;;;;10.38;3.95;;;21.70;95.50;;;;;;5003306;28;213404;-69
2023/05/13 07:55:56;;;;;;;14.25;3.92;;;21.80;95.50;;;;;;5052577;28;20051;-70
2023/05/13 07:58:22;;;;;;;12.52;3.70;;;22.20;95.40;;;;;;4976122;28;215755;-70
2023/05/13 08:00:48;;;;;;;14.32;4.30;;;22.50;95.30;;;;;;5060254;28;20063;-71
2023/05/13 08:03:15;;;;;;;12.45;4.28;;;22.70;95.00;;;;;;5008338;28;227418;-71
2023/05/13 08:05:41;;;;;;;11.82;3.72;;;22.80;94.20;;;;;;5074218;28;20059;-71
2023/05/13 08:08:07;;;;;;;10.13;3.85;;;23.10;94.30;;;;;;5011363;28;210299;-70
2023/05/13 08:10:34;;;;;;;10.38;4.10;;;23.30;93.90;;;;;;5077557;28;20055;-71
2023/05/13 08:13:01;;;;;;;15.52;4.00;;;23.80;94.20;;;;;;5026146;28;210776;-70
2023/05/13 08:15:27;;;;;;;9.60;4.20;;;23.80;93.90;;;;;;5051998;28;20517;-71
2023/05/13 08:17:53;;;;;;;9.05;4.10;;;24.10;94.10;;;;;;5070721;28;20052;-69
2023/05/13 08:20:21;;;;;;;10.32;4.35;;;24.40;93.90;;;;;;5027896;28;122723;-70
2023/05/13 08:22:47;;;;;;;12.98;4.47;;;24.70;93.50;;;;;;5071523;28;20060;-71
2023/05/13 08:25:14;;;;;;;11.55;4.10;;;24.90;93.20;;;;;;5002131;28;215384;-71
2023/05/13 08:27:40;;;;;;;10.68;3.85;;;24.40;92.50;;;;;;5068797;28;20055;-71
2023/05/13 08:30:07;;;;;;;13.88;3.90;;;24.30;93.00;;;;;;4982736;28;206320;-71
2023/05/13 08:32:33;;;;;;;12.38;4.25;;;24.30;91.90;;;;;;5068450;28;20048;-70
2023/05/13 08:35:00;;;;;;;10.48;4.03;;;24.70;92.30;;;;;;4998487;28;213455;-70
2023/05/13 08:37:26;;;;;;;10.13;4.05;;;25.10;92.30;;;;;;5071391;28;20449;-71
2023/05/13 08:39:54;;;;;;;11.60;4.10;;;25.20;91.00;;;;;;5012391;28;210439;-71
2023/05/13 08:42:21;;;;;;;13.93;4.10;;;25.10;91.30;;;;;;5070681;28;20075;-71
2023/05/13 08:44:49;;;;;;;10.32;3.72;;;25.20;91.00;;;;;;4997189;28;211137;-70
2023/05/13 08:47:21;;;;;;;12.77;3.70;;;25.30;90.90;;;;;;5067028;28;20119;-71
2023/05/13 08:49:48;;;;;;;13.18;4.10;;;25.20;90.90;;;;;;5018373;28;213512;-71
2023/05/13 08:52:14;;;;;;;16.10;4.10;;;25.50;90.70;;;;;;5054016;28;20059;-71
2023/05/13 08:54:42;;;;;;;11.02;4.00;;;25.60;90.50;;;;;;5010324;28;212881;-69
2023/05/13 08:57:08;;;;;;;11.57;3.95;;;25.60;90.50;;;;;;5076488;28;20052;-71
2023/05/13 08:59:34;;;;;;;12.90;3.85;;;25.90;90.40;;;;;;4995322;28;207488;-71
2023/05/13 09:02:03;;;;;;;10.88;4.10;;;26.40;90.20;;;;;;5072094;28;20048;-71
2023/05/13 09:04:29;;;;;;;14.20;3.70;;;26.30;88.80;;;;;;5011839;28;211305;-71
2023/05/13 09:06:56;;;;;;;13.80;4.05;;;26.20;88.80;;;;;;5072749;28;20048;-71
2023/05/13 09:09:22;;;;;;;14.98;3.70;;;26.30;87.60;;;;;;5003672;28;206830;-70
2023/05/13 09:11:48;;;;;;;12.82;3.63;;;26.50;88.10;;;;;;5065061;28;20547;-70
2023/05/13 09:14:18;;;;;;;12.68;3.20;;;26.90;86.20;;;;;;5008619;28;212962;-70
2023/05/13 09:16:46;;;;;;;11.23;3.27;;;26.50;85.10;;;;;;5069082;28;20463;-70
2023/05/13 09:19:12;;;;;;;11.48;3.30;;;26.40;85.40;;;;;;5010465;28;211774;-69
2023/05/13 09:21:39;;;;;;;11.57;3.03;;;27.00;85.10;;;;;;5075468;28;20047;-70
2023/05/13 09:24:16;;;;;;;10.65;3.15;;;26.80;83.40;;;;;;5008453;28;216973;-69
2023/05/13 09:26:44;;;;;;;13.27;3.40;;;26.90;83.10;;;;;;5075145;28;20048;-70
2023/05/13 09:29:24;;;;;;;14.30;3.10;;;27.40;82.30;;;;;;5009379;28;210443;-69
2023/05/13 09:31:55;;;;;;;13.25;3.28;;;27.80;83.60;;;;;;5068859;28;20057;-68
2023/05/13 09:34:26;;;;;;;9.50;3.28;;;27.60;79.80;;;;;;5005102;28;223305;-68
2023/05/13 09:37:04;;;;;;;9.38;2.90;;;27.20;81.30;;;;;;5065950;28;20052;-69
2023/05/13 09:39:33;;;;;;;10.90;2.90;;;28.00;81.50;;;;;;5004210;28;210740;-68
2023/05/13 09:42:01;;;;;;;10.55;2.85;;;28.30;81.40;;;;;;5052134;28;20067;-69
2023/05/13 09:44:27;;;;;;;14.55;3.20;;;28.70;81.20;;;;;;5005649;28;208249;-68
2023/05/13 09:46:53;;;;;;;16.35;3.80;;;28.70;78.70;;;;;;5070900;28;20061;-69
2023/05/13 09:49:25;;;;;;;13.10;2.92;;;28.60;77.90;;;;;;4998538;28;222437;-69
2023/05/13 09:51:51;;;;;;;10.90;2.95;;;28.50;78.20;;;;;;5061293;28;20056;-68
2023/05/13 09:54:17;;;;;;;10.43;3.08;;;28.80;78.50;;;;;;5013959;28;230079;-68
2023/05/13 09:56:43;;;;;;;12.45;3.03;;;28.60;78.50;;;;;;5074025;28;20048;-68
2023/05/13 09:59:09;;;;;;;9.93;2.83;;;28.60;76.30;;;;;;4986381;28;211239;-67
2023/05/13 10:01:36;;;;;;;9.02;2.70;;;28.90;76.30;;;;;;5045897;28;20068;-69
2023/05/13 10:04:04;;;;;;;10.93;3.00;;;28.90;75.50;;;;;;5022690;28;216148;-69
2023/05/13 10:06:32;;;;;;;12.45;3.20;;;28.30;74.50;;;;;;5063024;28;20079;-69
2023/05/13 10:09:02;;;;;;;19.00;3.53;;;28.60;75.70;;;;;;4997102;28;213199;-69
2023/05/13 10:11:28;;;;;;;;;;;29.20;74.70;;;;;;5052629;28;20049;-68
2023/05/13 10:14:03;;;;;;;12.35;2.80;;;28.80;72.20;;;;;;5003674;28;237427;-67
2023/05/13 10:16:31;;;;;;;8.05;2.90;;;28.90;74.20;;;;;;5057075;28;20538;-70
2023/05/13 10:18:57;;;;;;;12.10;3.08;;;28.80;72.90;;;;;;5003355;28;225665;-69
2023/05/13 10:21:27;;;;;;;15.02;2.78;;;28.90;73.60;;;;;;5064036;28;20063;-68
2023/05/13 10:23:53;;;;;;;11.03;3.00;;;28.80;72.00;;;;;;5013731;28;215973;-70
2023/05/13 10:26:20;;;;;;;10.75;3.15;;;28.60;72.30;;;;;;5085694;28;20047;-70
2023/05/13 10:28:48;;;;;;;12.07;3.28;;;28.70;72.50;;;;;;5008477;28;208293;-69
2023/05/13 10:31:16;;;;;;;18.80;3.28;;;28.80;72.50;;;;;;5073879;28;20410;-69
2023/05/13 10:33:42;;;;;;;11.93;3.50;;;28.80;72.60;;;;;;5015827;28;209907;-68
2023/05/13 10:36:27;;;;;;;12.25;3.55;;;29.00;74.40;;;;;;5065020;28;20048;-69
2023/05/13 10:39:05;;;;;;;8.52;3.15;;;29.20;74.30;;;;;;5013154;28;212943;-68
2023/05/13 10:41:55;;;;;;;13.85;3.15;;;28.90;74.70;;;;;;5066974;28;20055;-67
2023/05/13 10:44:23;;;;;;;12.02;3.58;;;29.10;74.90;;;;;;5010391;28;206668;-67
2023/05/13 10:46:49;;;;;;;13.30;3.22;;;29.10;75.00;;;;;;5068275;28;20051;-65
2023/05/13 10:49:15;;;;;;;13.52;3.05;;;29.40;74.70;;;;;;5017687;28;210793;-67
2023/05/13 10:51:48;;;;;;;11.75;3.30;;;29.60;73.40;;;;;;5071311;28;20049;-66
2023/05/13 10:54:19;;;;;;;11.75;3.13;;;30.00;73.30;;;;;;5014926;28;220574;-66
2023/05/13 10:56:54;;;;;;;13.40;2.90;;;29.70;72.90;;;;;;5079274;28;20052;-64
2023/05/13 10:59:20;;;;;;;10.93;3.00;;;29.50;70.50;;;;;;4998697;28;210560;-65
2023/05/13 11:01:48;;;;;;;11.10;2.90;;;29.50;71.70;;;;;;5075431;28;20048;-64
2023/05/13 11:04:16;;;;;;;8.07;2.60;;;29.60;69.50;;;;;;5016725;28;218279;-66
2023/05/13 11:06:45;;;;;;;9.63;2.90;;;29.00;71.40;;;;;;5073291;28;20704;-66
2023/05/13 11:09:31;;;;;;;10.27;3.10;;;29.20;70.90;;;;;;5015080;28;216839;-66
2023/05/13 11:11:58;;;;;;;8.60;2.90;;;29.40;70.70;;;;;;5068866;28;20063;-66
2023/05/13 11:14:29;;;;;;;9.40;2.80;;;29.70;70.50;;;;;;5009689;28;215270;-65
2023/05/13 11:17:03;;;;;;;9.98;2.95;;;30.10;72.00;;;;;;5069627;28;20057;-66
2023/05/13 11:19:31;;;;;;;11.02;3.30;;;29.60;69.40;;;;;;5010270;28;213065;-66
2023/05/13 11:22:03;;;;;;;14.98;3.03;;;29.00;70.00;;;;;;5061516;28;20063;-66
2023/05/13 11:24:29;;;;;;;11.35;2.72;;;29.10;70.70;;;;;;5011358;28;228019;-66
2023/05/13 11:26:57;;;;;;;11.90;3.13;;;29.50;70.70;;;;;;5055883;28;20131;-66
2023/05/13 11:29:33;;;;;;;10.57;3.17;;;29.80;67.40;;;;;;5002188;28;206282;-65
2023/05/13 11:32:02;;;;;;;9.98;2.80;;;29.60;68.30;;;;;;5062980;28;20048;-65
2023/05/13 11:34:29;;;;;;;10.27;3.00;;;29.60;70.60;;;;;;4996505;28;226193;-65
2023/05/13 11:37:09;;;;;;;11.57;2.72;;;29.80;70.20;;;;;;5068906;28;20044;-65
2023/05/13 11:39:40;;;;;;;9.20;3.00;;;29.10;68.30;;;;;;5001845;28;209327;-64
2023/05/13 11:42:08;;;;;;;8.50;2.83;;;29.00;67.90;;;;;;5070384;28;20063;-64
2023/05/13 11:44:34;;;;;;;9.05;2.80;;;28.80;69.70;;;;;;5025887;28;206440;-63
2023/05/13 11:47:04;;;;;;;12.07;2.88;;;28.40;68.90;;;;;;5072289;28;20570;-65
2023/05/13 11:49:38;;;;;;;12.10;3.38;;;28.60;69.80;;;;;;4998938;28;211013;-65
2023/05/13 11:52:14;;;;;;;9.32;2.75;;;28.30;70.00;;;;;;5070647;28;20418;-66
2023/05/13 11:54:41;;;;;;;14.18;3.05;;;28.40;68.60;;;;;;5013828;28;247333;-66
2023/05/13 11:57:16;;;;;;;12.65;2.90;;;29.00;68.00;;;;;;5069126;28;20071;-65
2023/05/13 12:00:03;;;;;;;11.77;3.33;;;28.90;67.90;;;;;;4995661;28;256089;-63
2023/05/13 12:02:33;;;;;;;11.55;3.00;;;28.80;67.30;;;;;;5071103;28;20060;-66
2023/05/13 12:05:04;;;;;;;10.88;2.60;;;29.00;69.10;;;;;;4996690;28;214486;-66
2023/05/13 12:07:31;;;;;;;11.52;2.40;;;29.40;67.50;;;;;;5072503;28;20060;-67
2023/05/13 12:09:59;;;;;;;9.00;2.38;;;28.80;63.20;;;;;;4975831;27;224876;-65
2023/05/13 12:12:29;;;;;;;12.15;2.60;;;29.80;65.80;;;;;;5054141;28;20538;-66
2023/05/13 12:15:00;;;;;;;8.07;2.35;;;30.20;61.80;;;;;;4995702;28;221998;-67
2023/05/13 12:17:27;;;;;;;9.85;2.05;;;29.40;61.50;;;;;;5072753;28;20058;-66
2023/05/13 12:20:11;;;;;;;14.18;2.25;;;29.60;63.80;;;;;;5014957;28;222270;-67
2023/05/13 12:22:59;;;;;;;14.60;2.50;;;30.10;63.80;;;;;;5075119;28;20056;-66
2023/05/13 12:25:39;;;;;;;13.73;2.42;;;30.60;63.70;;;;;;5028519;28;63517;-65
2023/05/13 12:28:24;;;;;;;6.80;2.20;;;30.40;63.00;;;;;;5017817;28;207505;-67
2023/05/13 12:30:58;;;;;;;9.77;2.40;;;30.30;62.90;;;;;;5074914;28;20048;-66
2023/05/13 12:33:31;;;;;;;8.50;2.40;;;29.70;62.90;;;;;;5017367;28;227659;-66